This is the latest recevied weather packets stored in our database for station/object K0PFX-8. If no packets are shown the sender has not sent any weather packets the latest 10 day(s).
| Time | Temp. | Humidity | Pressure | Rain* | Wind** | Luminosity | Snow |
|---|---|---|---|---|---|---|---|
| 1777907991 | 18.89° C | 50% | 1008.8 hPa | 0 mm | 1.34 m/s, 215° | - | - |
| 1777907090 | 18.89° C | 49% | 1008.8 hPa | 0 mm | 1.79 m/s, 203° | - | - |
| 1777906192 | 19.44° C | 48% | 1009.1 hPa | 0 mm | 2.24 m/s, 169° | - | - |
| 1777905291 | 19.44° C | 48% | 1009.4 hPa | 0 mm | 3.58 m/s, 218° | - | - |
| 1777904392 | 20.56° C | 46% | 1008.9 hPa | 0 mm | 4.47 m/s, 236° | - | - |
| 1777903491 | 20.56° C | 46% | 1009 hPa | 0 mm | 1.79 m/s, 253° | - | - |
| 1777902593 | 20.56° C | 48% | 1009.1 hPa | 0 mm | 3.13 m/s, 136° | - | - |
| 1777901692 | 20° C | 50% | 1009.3 hPa | 0 mm | 1.79 m/s, 195° | - | - |
| 1777900794 | 18.33° C | 53% | 1009.6 hPa | 0 mm | 0.89 m/s, 217° | - | - |
| 1777899893 | 17.78° C | 57% | 1009.7 hPa | 0 mm | 0 m/s | - | - |
| 1777898994 | 17.78° C | 57% | 1009.7 hPa | 0 mm | 0.45 m/s, 205° | - | - |
| 1777898094 | 16.67° C | 60% | 1009.9 hPa | 0 mm | 2.24 m/s, 176° | - | - |
| 1777897195 | 16.67° C | 61% | 1010.1 hPa | 0 mm | 1.34 m/s, 138° | - | - |
| 1777896295 | 16.11° C | 63% | 1010 hPa | 0 mm | 1.34 m/s, 195° | - | - |
| 1777895396 | 15.56° C | 66% | 1010 hPa | 0 mm | 0 m/s | - | - |
| 1777894495 | 15.56° C | 67% | 1009.9 hPa | 0 mm | 0.45 m/s, 143° | - | - |
| 1777893597 | 15.56° C | 66% | 1009.9 hPa | 0 mm | 0 m/s | - | - |
| 1777892696 | 15.56° C | 64% | 1009.9 hPa | 0 mm | 0 m/s | - | - |
| 1777892113 | 15.56° C | 64% | 1009.9 hPa | 0 mm | 0 m/s | - | - |
| 1777891797 | 15.56° C | 64% | 1009.9 hPa | 0 mm | 0 m/s | - | - |
| 1777890896 | 15.56° C | 65% | 1010 hPa | 0 mm | 0 m/s | - | - |
| 1777889998 | 15.56° C | 65% | 1010 hPa | 0 mm | 1.79 m/s, 201° | - | - |
| 1777889097 | 15.56° C | 67% | 1010.2 hPa | 0 mm | 1.79 m/s, 226° | - | - |
| 1777888198 | 15.56° C | 70% | 1010 hPa | 0 mm | 0 m/s | - | - |
| 1777887297 | 15.56° C | 68% | 1009.7 hPa | 0 mm | 1.34 m/s, 194° | - | - |
* Rain latest hour (hover to see other rain measurements)
** Current wind speed in m/s (hover to see current wind gust speed)